createdAt,value
2022-12-22T00:00:40.148Z,3.65
2022-12-22T00:03:32.165Z,3.75
2022-12-22T00:06:17.579Z,4.90
2022-12-22T00:09:05.716Z,3.53
2022-12-22T00:11:51.741Z,3.33
2022-12-22T00:14:38.914Z,3.05
2022-12-22T00:17:35.956Z,3.15
2022-12-22T00:20:24.580Z,3.25
2022-12-22T00:23:10.166Z,3.05
2022-12-22T00:25:55.766Z,2.95
2022-12-22T00:28:41.383Z,3.25
2022-12-22T00:31:28.462Z,3.15
2022-12-22T00:34:13.938Z,3.50
2022-12-22T00:36:59.589Z,3.78
2022-12-22T00:39:45.261Z,4.35
2022-12-22T00:42:30.727Z,3.80
2022-12-22T00:45:16.295Z,4.00
2022-12-22T00:48:04.175Z,4.40
2022-12-22T00:50:54.841Z,4.63
2022-12-22T00:53:40.233Z,4.45
2022-12-22T00:56:27.684Z,3.90
2022-12-22T00:59:17.969Z,4.25
2022-12-22T01:02:03.764Z,5.15
2022-12-22T01:04:50.533Z,5.38
2022-12-22T01:07:40.674Z,4.90
2022-12-22T01:10:31.234Z,5.57
2022-12-22T01:13:16.555Z,5.50
2022-12-22T01:16:02.178Z,5.80
2022-12-22T01:18:47.796Z,7.05
2022-12-22T01:21:36.651Z,6.47
2022-12-22T01:27:09.980Z,5.53
2022-12-22T01:29:55.394Z,5.57
2022-12-22T01:32:41.993Z,5.60
2022-12-22T01:35:36.475Z,5.78
2022-12-22T01:38:23.327Z,6.05
2022-12-22T01:41:09.995Z,5.97
2022-12-22T01:43:55.695Z,6.00
2022-12-22T01:46:43.564Z,6.00
2022-12-22T01:49:32.894Z,5.47
2022-12-22T01:52:19.399Z,4.85
2022-12-22T01:55:06.660Z,5.82
2022-12-22T01:57:53.096Z,5.47
2022-12-22T02:00:38.533Z,4.53
2022-12-22T02:03:34.351Z,4.72
2022-12-22T02:06:33.432Z,5.10
2022-12-22T02:09:41.288Z,4.90
2022-12-22T02:12:34.927Z,3.50
2022-12-22T02:15:25.936Z,3.97
2022-12-22T02:18:20.739Z,4.03
2022-12-22T02:21:07.731Z,4.10
2022-12-22T02:24:19.839Z,4.15
2022-12-22T02:27:08.948Z,3.78
2022-12-22T02:29:58.072Z,4.20
2022-12-22T02:32:44.311Z,4.03
2022-12-22T02:35:31.283Z,3.33
2022-12-22T02:38:26.812Z,3.63
2022-12-22T02:41:23.915Z,4.53
2022-12-22T02:44:31.261Z,3.47
2022-12-22T02:47:20.754Z,3.05
2022-12-22T02:50:12.367Z,3.08
2022-12-22T02:53:00.624Z,3.30
2022-12-22T02:55:46.901Z,3.00
2022-12-22T02:58:33.646Z,3.03
2022-12-22T03:01:23.056Z,2.85
2022-12-22T03:04:08.815Z,2.53
2022-12-22T03:06:54.193Z,2.90
2022-12-22T03:09:39.708Z,3.17
2022-12-22T03:12:25.400Z,2.33
2022-12-22T03:15:11.152Z,2.38
2022-12-22T03:17:57.988Z,1.70
2022-12-22T03:20:43.479Z,2.10
2022-12-22T03:23:28.843Z,1.88
2022-12-22T03:25:56.744Z,2.78
2022-12-22T03:28:26.473Z,1.50
2022-12-22T03:30:57.173Z,1.80
2022-12-22T03:33:27.116Z,1.88
2022-12-22T03:35:54.980Z,1.58
2022-12-22T03:38:22.930Z,1.48
2022-12-22T03:40:50.909Z,1.50
2022-12-22T03:43:36.905Z,1.45
2022-12-22T03:46:25.161Z,1.50
2022-12-22T03:49:12.580Z,1.23
2022-12-22T03:51:43.741Z,1.52
2022-12-22T03:54:13.843Z,1.25
2022-12-22T03:56:42.462Z,1.15
2022-12-22T03:59:10.480Z,1.60
2022-12-22T04:01:40.758Z,1.10
2022-12-22T04:04:10.864Z,1.20
2022-12-22T04:06:38.790Z,1.00
2022-12-22T04:09:07.080Z,1.33
2022-12-22T04:11:52.550Z,1.38
2022-12-22T04:14:21.363Z,1.10
2022-12-22T04:16:49.464Z,1.17
2022-12-22T04:19:18.886Z,1.42
2022-12-22T04:21:46.862Z,1.15
2022-12-22T04:24:14.876Z,0.93
2022-12-22T04:26:42.814Z,1.00
2022-12-22T04:29:10.714Z,1.40
2022-12-22T04:31:38.747Z,1.30
2022-12-22T04:34:06.725Z,1.33
2022-12-22T04:36:35.978Z,1.30
2022-12-22T04:39:03.975Z,1.27
2022-12-22T04:41:31.895Z,1.30
2022-12-22T04:43:59.791Z,1.00
2022-12-22T04:46:27.788Z,1.35
2022-12-22T04:48:59.944Z,1.58
2022-12-22T04:51:28.534Z,0.98
2022-12-22T04:53:57.829Z,1.25
2022-12-22T04:56:25.716Z,1.50
2022-12-22T04:58:53.613Z,1.58
2022-12-22T05:01:21.559Z,1.80
2022-12-22T05:03:49.670Z,1.00
2022-12-22T05:06:17.823Z,1.20
2022-12-22T05:08:45.802Z,1.52
2022-12-22T05:11:15.024Z,1.67
2022-12-22T05:13:42.938Z,1.20
2022-12-22T05:16:13.622Z,1.63
2022-12-22T05:18:42.850Z,1.65
2022-12-22T05:21:12.732Z,1.33
2022-12-22T05:23:41.104Z,1.27
2022-12-22T05:26:09.509Z,1.55
2022-12-22T05:28:38.945Z,1.63
2022-12-22T05:31:08.201Z,1.63
2022-12-22T05:33:36.714Z,1.65
2022-12-22T05:36:05.136Z,1.90
2022-12-22T05:38:33.073Z,3.40
2022-12-22T05:41:04.247Z,1.58
2022-12-22T05:43:32.762Z,1.70
2022-12-22T05:46:04.686Z,1.77
2022-12-22T05:48:37.829Z,1.73
2022-12-22T05:51:07.447Z,1.67
2022-12-22T05:53:35.444Z,2.22
2022-12-22T05:56:03.371Z,2.33
2022-12-22T05:58:31.285Z,2.33
2022-12-22T06:00:59.434Z,1.73
2022-12-22T06:03:30.100Z,2.47
2022-12-22T06:05:58.886Z,2.05
2022-12-22T06:08:26.842Z,2.08
2022-12-22T06:10:55.974Z,2.53
2022-12-22T06:13:23.929Z,1.77
2022-12-22T06:15:51.922Z,2.05
2022-12-22T06:18:20.052Z,2.75
2022-12-22T06:20:51.754Z,2.58
2022-12-22T06:23:19.672Z,3.00
2022-12-22T06:25:55.700Z,2.38
2022-12-22T06:28:24.031Z,2.13
2022-12-22T06:30:52.323Z,1.98
2022-12-22T06:33:20.268Z,2.40
2022-12-22T06:35:57.418Z,2.10
2022-12-22T06:38:27.223Z,2.95
2022-12-22T06:40:55.091Z,2.35
2022-12-22T06:43:21.992Z,2.03
2022-12-22T06:45:50.037Z,3.05
2022-12-22T06:48:17.961Z,3.60
2022-12-22T06:50:46.008Z,2.20
2022-12-22T06:53:15.361Z,1.95
2022-12-22T06:55:43.255Z,2.70
2022-12-22T06:58:11.113Z,2.25
2022-12-22T07:00:38.992Z,2.70
2022-12-22T07:03:07.043Z,2.30
2022-12-22T07:05:35.114Z,2.85
2022-12-22T07:08:08.438Z,2.47
2022-12-22T07:10:56.267Z,1.90
2022-12-22T07:13:24.789Z,2.45
2022-12-22T07:16:00.114Z,3.28
2022-12-22T07:18:30.497Z,2.20
2022-12-22T07:20:58.582Z,3.35
2022-12-22T07:23:27.215Z,2.38
2022-12-22T07:25:56.470Z,2.80
2022-12-22T07:28:24.894Z,2.88
2022-12-22T07:30:54.036Z,2.80
2022-12-22T07:33:21.984Z,2.13
2022-12-22T07:35:49.861Z,2.50
2022-12-22T07:38:17.694Z,3.15
2022-12-22T07:40:50.997Z,3.63
2022-12-22T07:43:20.183Z,3.05
2022-12-22T07:45:48.182Z,2.85
2022-12-22T07:48:33.588Z,4.30
2022-12-22T07:51:04.849Z,3.15
2022-12-22T07:53:33.824Z,2.97
2022-12-22T07:56:04.620Z,3.08
2022-12-22T07:58:34.467Z,3.13
2022-12-22T08:01:02.724Z,2.67
2022-12-22T08:03:30.577Z,2.33
2022-12-22T08:05:58.503Z,2.28
2022-12-22T08:08:26.413Z,3.28
2022-12-22T08:10:54.280Z,3.25
2022-12-22T08:13:22.138Z,3.53
2022-12-22T08:15:51.430Z,3.10
2022-12-22T08:18:19.314Z,2.95
2022-12-22T08:20:51.003Z,3.17
2022-12-22T08:23:19.030Z,3.25
2022-12-22T08:25:49.675Z,3.10
2022-12-22T08:28:18.222Z,3.03
2022-12-22T08:30:47.040Z,3.03
2022-12-22T08:33:16.407Z,3.30
2022-12-22T08:35:44.809Z,2.55
2022-12-22T08:38:14.319Z,2.70
2022-12-22T08:40:46.266Z,2.05
2022-12-22T08:43:14.727Z,2.45
2022-12-22T08:45:43.643Z,2.33
2022-12-22T08:48:11.951Z,1.85
2022-12-22T08:50:41.156Z,2.78
2022-12-22T08:53:23.657Z,2.70
2022-12-22T08:58:25.587Z,1.90
2022-12-22T09:00:53.487Z,2.67
2022-12-22T09:03:21.665Z,2.55
2022-12-22T09:05:51.001Z,2.60
2022-12-22T09:08:18.863Z,3.45
2022-12-22T09:10:46.739Z,2.50
2022-12-22T09:13:14.820Z,3.17
2022-12-22T09:15:42.682Z,2.50
2022-12-22T09:18:10.541Z,3.05
2022-12-22T09:20:38.412Z,2.72
2022-12-22T09:23:07.616Z,2.80
2022-12-22T09:25:35.798Z,2.15
2022-12-22T09:28:03.760Z,2.55
2022-12-22T09:30:31.620Z,2.78
2022-12-22T09:32:59.472Z,3.88
2022-12-22T09:35:27.325Z,3.38
2022-12-22T09:37:55.192Z,3.05
2022-12-22T09:40:24.779Z,2.72
2022-12-22T09:42:52.713Z,2.63
2022-12-22T09:45:21.047Z,2.85
2022-12-22T09:47:53.935Z,2.50
2022-12-22T09:50:24.337Z,2.78
2022-12-22T09:52:56.139Z,3.42
2022-12-22T09:55:38.881Z,2.85
2022-12-22T09:58:14.786Z,2.90
2022-12-22T10:00:43.751Z,2.83
2022-12-22T10:03:22.487Z,2.63
2022-12-22T10:05:57.596Z,2.65
2022-12-22T10:08:30.187Z,2.10
2022-12-22T10:10:59.400Z,3.13
2022-12-22T10:13:27.244Z,2.67
2022-12-22T10:15:55.802Z,3.20
2022-12-22T10:18:25.689Z,2.65
2022-12-22T10:21:09.775Z,2.40
2022-12-22T10:23:40.868Z,2.38
2022-12-22T10:26:30.856Z,3.05
2022-12-22T10:29:06.515Z,2.42
2022-12-22T10:31:37.019Z,2.00
2022-12-22T10:34:13.706Z,2.05
2022-12-22T10:36:43.534Z,2.50
2022-12-22T10:39:12.929Z,1.80
2022-12-22T10:41:45.657Z,2.58
2022-12-22T10:44:23.541Z,2.45
2022-12-22T10:46:52.920Z,2.10
2022-12-22T10:49:22.833Z,2.55
2022-12-22T10:51:53.223Z,2.65
2022-12-22T10:54:33.330Z,1.80
2022-12-22T10:57:07.695Z,1.90
2022-12-22T10:59:49.238Z,1.95
2022-12-22T11:02:30.897Z,2.20
2022-12-22T11:05:04.529Z,1.70
2022-12-22T11:07:35.259Z,2.30
2022-12-22T11:10:03.464Z,2.70
2022-12-22T11:12:41.745Z,1.70
2022-12-22T11:15:24.863Z,1.63
2022-12-22T11:18:01.769Z,1.63
2022-12-22T11:20:40.784Z,1.92
2022-12-22T11:23:15.399Z,1.95
2022-12-22T11:25:56.414Z,1.40
2022-12-22T11:28:38.230Z,1.25
2022-12-22T11:31:18.472Z,1.48
2022-12-22T11:33:57.953Z,1.90
2022-12-22T11:36:39.313Z,1.58
2022-12-22T11:39:12.659Z,1.40
2022-12-22T11:41:56.543Z,1.30
2022-12-22T11:44:38.618Z,1.42
2022-12-22T11:47:21.391Z,1.65
2022-12-22T11:50:58.826Z,1.30
2022-12-22T11:53:17.287Z,1.35
2022-12-22T11:55:50.655Z,1.50
2022-12-22T11:58:41.065Z,1.67
2022-12-22T12:01:26.833Z,1.73
2022-12-22T12:04:10.585Z,1.58
2022-12-22T12:07:01.074Z,1.60
2022-12-22T12:09:42.840Z,1.10
2022-12-22T12:12:21.176Z,1.38
2022-12-22T12:14:58.839Z,2.17
2022-12-22T12:17:39.400Z,1.40
2022-12-22T12:20:30.350Z,1.38
2022-12-22T12:23:12.889Z,1.67
2022-12-22T12:25:45.074Z,1.00
2022-12-22T12:28:20.383Z,1.13
2022-12-22T12:30:54.881Z,1.10
2022-12-22T12:33:37.291Z,1.10
2022-12-22T12:36:13.803Z,1.08
2022-12-22T12:39:09.454Z,1.10
2022-12-22T12:41:47.758Z,0.75
2022-12-22T12:44:17.945Z,1.33
2022-12-22T12:46:55.795Z,1.10
2022-12-22T12:50:00.810Z,1.10
2022-12-22T12:53:15.190Z,1.20
2022-12-22T12:56:04.715Z,0.93
2022-12-22T12:58:51.610Z,0.93
2022-12-22T13:02:01.093Z,0.63
2022-12-22T13:05:03.053Z,0.80
2022-12-22T13:08:08.430Z,0.90
2022-12-22T13:10:38.711Z,1.35
2022-12-22T13:13:07.390Z,1.08
2022-12-22T13:15:36.863Z,0.82
2022-12-22T13:18:05.760Z,1.20
2022-12-22T13:20:37.134Z,0.93
2022-12-22T13:23:12.366Z,1.20
2022-12-22T13:25:46.204Z,0.88
2022-12-22T13:28:17.921Z,1.13
2022-12-22T13:30:50.197Z,1.38
2022-12-22T13:33:21.723Z,1.58
2022-12-22T13:35:58.254Z,1.20
2022-12-22T13:38:31.678Z,1.33
2022-12-22T13:41:01.001Z,1.50
2022-12-22T13:43:30.866Z,1.70
2022-12-22T13:46:01.883Z,1.80
2022-12-22T13:48:44.173Z,2.05
2022-12-22T13:51:22.169Z,1.38
2022-12-22T13:54:10.305Z,1.50
2022-12-22T13:56:41.881Z,1.67
2022-12-22T13:59:22.224Z,1.75
2022-12-22T14:01:51.377Z,1.48
2022-12-22T14:04:19.376Z,1.30
2022-12-22T14:06:48.668Z,1.40
2022-12-22T14:09:19.147Z,1.33
2022-12-22T14:11:52.456Z,2.22
2022-12-22T14:14:25.017Z,1.73
2022-12-22T14:16:55.231Z,1.83
2022-12-22T14:19:24.817Z,2.05
2022-12-22T14:22:03.368Z,1.45
2022-12-22T14:24:38.295Z,2.20
2022-12-22T14:27:14.130Z,1.70
2022-12-22T14:29:42.128Z,1.90
2022-12-22T14:32:10.528Z,1.75
2022-12-22T14:34:39.405Z,2.10
2022-12-22T14:37:11.611Z,2.80
2022-12-22T14:39:39.517Z,3.00
2022-12-22T14:42:14.091Z,2.08
2022-12-22T14:44:45.792Z,3.70
2022-12-22T14:47:20.749Z,3.53
2022-12-22T14:49:51.707Z,2.50
2022-12-22T14:52:33.132Z,2.30
2022-12-22T14:55:01.589Z,2.55
2022-12-22T14:57:33.176Z,2.53
2022-12-22T15:00:04.539Z,2.92
2022-12-22T15:02:39.002Z,3.17
2022-12-22T15:05:16.343Z,2.05
2022-12-22T15:08:08.478Z,2.65
2022-12-22T15:10:40.869Z,2.40
2022-12-22T15:13:16.804Z,2.85
2022-12-22T15:15:44.937Z,2.78
2022-12-22T15:18:16.102Z,2.90
2022-12-22T15:20:44.047Z,3.63
2022-12-22T15:23:17.320Z,2.67
2022-12-22T15:25:45.631Z,2.38
2022-12-22T15:28:13.759Z,2.00
2022-12-22T15:30:41.986Z,2.65
2022-12-22T15:33:14.183Z,2.83
2022-12-22T15:35:43.135Z,2.40
2022-12-22T15:38:15.602Z,2.65
2022-12-22T15:40:43.484Z,2.55
2022-12-22T15:43:28.722Z,2.83
2022-12-22T15:45:59.830Z,2.90
2022-12-22T15:48:30.374Z,3.35
2022-12-22T15:50:59.234Z,2.70
2022-12-22T15:53:28.759Z,3.75
2022-12-22T15:55:58.601Z,3.78
2022-12-22T15:58:29.079Z,2.90
2022-12-22T16:00:57.205Z,3.15
2022-12-22T16:03:25.340Z,3.05
2022-12-22T16:05:54.499Z,3.80
2022-12-22T16:08:28.424Z,4.05
2022-12-22T16:10:57.866Z,3.67
2022-12-22T16:13:28.805Z,3.45
2022-12-22T16:15:57.913Z,3.08
2022-12-22T16:18:26.355Z,3.60
2022-12-22T16:20:54.910Z,3.08
2022-12-22T16:23:25.464Z,4.13
2022-12-22T16:26:00.935Z,3.60
2022-12-22T16:28:31.036Z,4.53
2022-12-22T16:30:58.989Z,3.70
2022-12-22T16:33:26.956Z,3.78
2022-12-22T16:35:54.831Z,3.92
2022-12-22T16:38:22.740Z,5.70
2022-12-22T16:40:52.698Z,4.45
2022-12-22T16:46:16.229Z,6.57
2022-12-22T16:48:46.789Z,5.43
2022-12-22T16:51:19.153Z,4.63
2022-12-22T16:53:47.068Z,4.38
2022-12-22T16:56:20.284Z,5.13
2022-12-22T16:58:48.933Z,4.55
2022-12-22T17:01:32.534Z,4.05
2022-12-22T17:04:05.295Z,4.45
2022-12-22T17:06:33.724Z,5.05
2022-12-22T17:09:03.911Z,3.40
2022-12-22T17:11:32.671Z,4.65
2022-12-22T17:14:07.092Z,4.93
2022-12-22T17:16:36.430Z,6.15
2022-12-22T17:19:04.401Z,4.60
2022-12-22T17:21:32.490Z,4.97
2022-12-22T17:24:04.193Z,4.47
2022-12-22T17:26:34.046Z,4.80
2022-12-22T17:29:02.439Z,4.45
2022-12-22T17:31:30.392Z,5.82
2022-12-22T17:33:59.689Z,7.03
2022-12-22T17:36:32.904Z,3.90
2022-12-22T17:39:01.666Z,5.32
2022-12-22T17:41:29.683Z,4.75
2022-12-22T17:43:57.737Z,6.00
2022-12-22T17:46:25.841Z,5.28
2022-12-22T17:48:53.730Z,4.93
2022-12-22T17:51:25.955Z,6.00
2022-12-22T17:53:54.814Z,5.28
2022-12-22T17:56:25.143Z,5.88
2022-12-22T17:58:53.384Z,6.05
2022-12-22T18:01:27.372Z,4.75
2022-12-22T18:03:56.388Z,4.80
2022-12-22T18:06:29.780Z,5.50
2022-12-22T18:08:58.020Z,5.28
2022-12-22T18:11:26.123Z,6.43
2022-12-22T18:13:54.961Z,5.13
2022-12-22T18:16:23.156Z,5.22
2022-12-22T18:18:51.417Z,6.28
2022-12-22T18:21:21.610Z,5.45
2022-12-22T18:23:51.774Z,4.90
2022-12-22T18:26:24.949Z,5.93
2022-12-22T18:28:53.752Z,5.78
2022-12-22T18:31:22.921Z,5.53
2022-12-22T18:33:51.640Z,5.60
2022-12-22T18:36:21.410Z,5.90
2022-12-22T18:38:50.822Z,5.63
2022-12-22T18:41:22.051Z,5.40
2022-12-22T18:43:50.538Z,6.03
2022-12-22T18:46:19.056Z,5.80
2022-12-22T18:48:47.326Z,5.93
2022-12-22T18:51:20.543Z,5.03
2022-12-22T18:53:50.597Z,5.53
2022-12-22T18:56:18.503Z,5.05
2022-12-22T18:58:47.157Z,4.18
2022-12-22T19:01:20.204Z,4.22
2022-12-22T19:03:48.725Z,4.70
2022-12-22T19:06:18.590Z,4.43
2022-12-22T19:08:48.161Z,4.97
2022-12-22T19:11:20.458Z,4.55
2022-12-22T19:13:51.020Z,4.25
2022-12-22T19:16:21.741Z,4.93
2022-12-22T19:18:49.846Z,3.95
2022-12-22T19:21:18.847Z,4.70
2022-12-22T19:23:46.797Z,4.00
2022-12-22T19:26:22.861Z,4.28
2022-12-22T19:28:54.073Z,3.72
2022-12-22T19:31:24.786Z,4.22
2022-12-22T19:33:53.173Z,3.47
2022-12-22T19:36:25.526Z,4.57
2022-12-22T19:39:02.561Z,4.78
2022-12-22T19:41:39.617Z,5.80
2022-12-22T19:44:14.176Z,5.63
2022-12-22T19:46:42.077Z,4.72
2022-12-22T19:49:15.091Z,5.78
2022-12-22T19:51:42.975Z,5.10
2022-12-22T19:54:10.840Z,4.80
2022-12-22T19:56:41.029Z,4.45
2022-12-22T19:59:25.998Z,4.80
2022-12-22T20:01:57.053Z,4.45
2022-12-22T20:04:25.108Z,6.03
2022-12-22T20:06:53.152Z,5.47
2022-12-22T20:09:21.041Z,4.63
2022-12-22T20:11:50.407Z,4.68
2022-12-22T20:14:18.805Z,4.72
2022-12-22T20:16:46.899Z,5.13
2022-12-22T20:19:15.367Z,4.00
2022-12-22T20:21:43.840Z,4.50
2022-12-22T20:24:20.213Z,3.53
2022-12-22T20:26:53.701Z,3.88
2022-12-22T20:29:25.263Z,3.72
2022-12-22T20:31:53.668Z,4.03
2022-12-22T20:34:21.624Z,4.53
2022-12-22T20:36:49.540Z,4.55
2022-12-22T20:39:20.267Z,4.88
2022-12-22T20:41:53.080Z,4.50
2022-12-22T20:44:23.855Z,3.65
2022-12-22T20:46:51.859Z,4.63
2022-12-22T20:49:19.780Z,4.45
2022-12-22T20:51:47.675Z,2.90
2022-12-22T20:54:16.404Z,3.17
2022-12-22T20:56:45.600Z,3.42
2022-12-22T20:59:16.010Z,4.20
2022-12-22T21:01:45.960Z,3.00
2022-12-22T21:04:14.946Z,3.35
2022-12-22T21:06:47.815Z,3.20
2022-12-22T21:09:16.192Z,2.53
2022-12-22T21:11:44.392Z,3.13
2022-12-22T21:14:13.249Z,2.85
2022-12-22T21:16:41.881Z,2.88
2022-12-22T21:19:17.003Z,3.13
2022-12-22T21:21:45.033Z,2.65
2022-12-22T21:24:12.937Z,3.85
2022-12-22T21:26:43.790Z,2.90
2022-12-22T21:29:16.549Z,3.05
2022-12-22T21:31:44.444Z,2.67
2022-12-22T21:34:13.748Z,3.53
2022-12-22T21:36:44.434Z,3.25
2022-12-22T21:39:23.392Z,5.32
2022-12-22T21:42:04.582Z,3.78
2022-12-22T21:44:34.289Z,3.00
2022-12-22T21:47:02.891Z,2.47
2022-12-22T21:49:33.919Z,3.72
2022-12-22T21:52:01.970Z,2.70
2022-12-22T21:54:29.863Z,3.45
2022-12-22T21:56:57.975Z,3.67
2022-12-22T21:59:26.199Z,3.05
2022-12-22T22:01:54.251Z,3.28
2022-12-22T22:04:23.374Z,2.97
2022-12-22T22:06:52.562Z,2.60
2022-12-22T22:09:20.507Z,2.53
2022-12-22T22:12:06.127Z,2.40
2022-12-22T22:14:34.055Z,2.78
2022-12-22T22:17:01.942Z,2.90
2022-12-22T22:19:29.850Z,3.10
2022-12-22T22:21:59.069Z,3.00
2022-12-22T22:24:26.907Z,2.72
2022-12-22T22:26:56.478Z,3.50
2022-12-22T22:29:24.368Z,3.90
2022-12-22T22:31:52.256Z,2.67
2022-12-22T22:34:20.101Z,2.55
2022-12-22T22:36:47.984Z,3.13
2022-12-22T22:39:17.208Z,2.40
2022-12-22T22:41:45.100Z,2.55
2022-12-22T22:44:13.209Z,2.20
2022-12-22T22:46:41.623Z,2.10
2022-12-22T22:49:09.703Z,2.30
2022-12-22T22:51:37.619Z,2.20
2022-12-22T22:54:05.603Z,2.70
2022-12-22T22:56:35.422Z,3.58
2022-12-22T22:59:03.732Z,2.17
2022-12-22T23:01:31.678Z,2.38
2022-12-22T23:03:59.643Z,2.30
2022-12-22T23:06:27.591Z,2.47
2022-12-22T23:08:55.443Z,1.92
2022-12-22T23:11:23.360Z,1.70
2022-12-22T23:13:54.642Z,1.90
2022-12-22T23:16:24.371Z,2.00
2022-12-22T23:18:53.200Z,2.25
2022-12-22T23:21:22.470Z,2.10
2022-12-22T23:23:50.429Z,1.95
2022-12-22T23:26:18.377Z,1.88
2022-12-22T23:28:46.223Z,2.10
2022-12-22T23:31:15.502Z,2.28
2022-12-22T23:33:43.371Z,2.20
2022-12-22T23:36:11.385Z,2.20
2022-12-22T23:38:39.248Z,2.25
2022-12-22T23:41:09.633Z,1.75
2022-12-22T23:43:37.624Z,3.13
2022-12-22T23:46:07.927Z,1.95
2022-12-22T23:48:37.695Z,2.10
2022-12-22T23:51:06.300Z,1.85
2022-12-22T23:53:34.642Z,1.95
2022-12-22T23:56:02.927Z,4.35
2022-12-22T23:58:30.928Z,2.03
